sensor_id;sensor_type;location;lat;lon;timestamp;temperature;humidity
52609;DHT22;38503;48.544;12.142;2023-02-28T00:00:37;-1.80;1.00
52609;DHT22;38503;48.544;12.142;2023-02-28T00:03:04;-1.80;1.00
52609;DHT22;38503;48.544;12.142;2023-02-28T00:05:32;-1.80;1.00
52609;DHT22;38503;48.544;12.142;2023-02-28T00:07:58;-1.80;1.00
52609;DHT22;38503;48.544;12.142;2023-02-28T00:10:30;-1.80;1.00
52609;DHT22;38503;48.544;12.142;2023-02-28T00:13:03;-1.90;1.00
52609;DHT22;38503;48.544;12.142;2023-02-28T00:15:31;-1.90;1.00
52609;DHT22;38503;48.544;12.142;2023-02-28T00:17:58;-1.90;1.00
52609;DHT22;38503;48.544;12.142;2023-02-28T00:20:25;-1.90;1.00
52609;DHT22;38503;48.544;12.142;2023-02-28T00:22:53;-1.90;1.00
52609;DHT22;38503;48.544;12.142;2023-02-28T00:25:22;-1.90;1.00
52609;DHT22;38503;48.544;12.142;2023-02-28T00:27:50;-1.90;1.00
52609;DHT22;38503;48.544;12.142;2023-02-28T00:30:22;-1.90;1.00
52609;DHT22;38503;48.544;12.142;2023-02-28T00:32:50;-1.90;1.00
52609;DHT22;38503;48.544;12.142;2023-02-28T00:35:17;-2.00;1.00
52609;DHT22;38503;48.544;12.142;2023-02-28T00:37:44;-2.00;1.00
52609;DHT22;38503;48.544;12.142;2023-02-28T00:40:11;-2.00;1.00
52609;DHT22;38503;48.544;12.142;2023-02-28T00:42:39;-1.90;1.00
52609;DHT22;38503;48.544;12.142;2023-02-28T00:45:06;-2.00;1.00
52609;DHT22;38503;48.544;12.142;2023-02-28T00:47:35;-2.00;1.00
52609;DHT22;38503;48.544;12.142;2023-02-28T00:50:03;-2.00;1.00
52609;DHT22;38503;48.544;12.142;2023-02-28T00:52:30;-2.00;1.00
52609;DHT22;38503;48.544;12.142;2023-02-28T00:54:56;-2.00;1.00
52609;DHT22;38503;48.544;12.142;2023-02-28T00:57:23;-2.00;1.00
52609;DHT22;38503;48.544;12.142;2023-02-28T00:59:50;-2.10;1.00
52609;DHT22;38503;48.544;12.142;2023-02-28T01:02:17;-2.10;1.00
52609;DHT22;38503;48.544;12.142;2023-02-28T01:04:44;-2.10;1.00
52609;DHT22;38503;48.544;12.142;2023-02-28T01:07:11;-2.20;1.00
52609;DHT22;38503;48.544;12.142;2023-02-28T01:09:38;-2.20;1.00
52609;DHT22;38503;48.544;12.142;2023-02-28T01:12:05;-2.10;1.00
52609;DHT22;38503;48.544;12.142;2023-02-28T01:14:33;-2.20;1.00
52609;DHT22;38503;48.544;12.142;2023-02-28T01:17:01;-2.10;1.00
52609;DHT22;38503;48.544;12.142;2023-02-28T01:19:28;-2.10;1.00
52609;DHT22;38503;48.544;12.142;2023-02-28T01:21:54;-2.20;1.00
52609;DHT22;38503;48.544;12.142;2023-02-28T01:24:21;-2.10;1.00
52609;DHT22;38503;48.544;12.142;2023-02-28T01:26:48;-2.20;1.00
52609;DHT22;38503;48.544;12.142;2023-02-28T01:29:15;-2.20;1.00
52609;DHT22;38503;48.544;12.142;2023-02-28T01:31:42;-2.20;1.00
52609;DHT22;38503;48.544;12.142;2023-02-28T01:34:08;-2.20;1.00
52609;DHT22;38503;48.544;12.142;2023-02-28T01:36:35;-2.30;1.00
52609;DHT22;38503;48.544;12.142;2023-02-28T01:39:02;-2.20;1.00
52609;DHT22;38503;48.544;12.142;2023-02-28T01:41:32;-2.30;1.00
52609;DHT22;38503;48.544;12.142;2023-02-28T01:44:55;-2.30;1.00
52609;DHT22;38503;48.544;12.142;2023-02-28T01:46:54;-2.40;1.00
52609;DHT22;38503;48.544;12.142;2023-02-28T01:49:21;-2.30;1.00
52609;DHT22;38503;48.544;12.142;2023-02-28T01:51:50;-2.30;1.00
52609;DHT22;38503;48.544;12.142;2023-02-28T01:54:22;-2.40;1.00
52609;DHT22;38503;48.544;12.142;2023-02-28T01:57:01;-2.30;1.00
52609;DHT22;38503;48.544;12.142;2023-02-28T02:00:02;-2.30;1.00
52609;DHT22;38503;48.544;12.142;2023-02-28T02:02:30;-2.30;1.00
52609;DHT22;38503;48.544;12.142;2023-02-28T02:05:02;-2.40;1.00
52609;DHT22;38503;48.544;12.142;2023-02-28T02:07:32;-2.40;1.00
52609;DHT22;38503;48.544;12.142;2023-02-28T02:10:15;-2.40;1.00
52609;DHT22;38503;48.544;12.142;2023-02-28T02:15:49;-2.40;1.00
52609;DHT22;38503;48.544;12.142;2023-02-28T02:18:39;-2.40;1.00
52609;DHT22;38503;48.544;12.142;2023-02-28T02:32:08;-2.60;1.00
52609;DHT22;38503;48.544;12.142;2023-02-28T02:40:25;-2.60;4.50
52609;DHT22;38503;48.544;12.142;2023-02-28T02:45:38;-2.60;7.60
52609;DHT22;38503;48.544;12.142;2023-02-28T02:48:09;-2.50;7.60
52609;DHT22;38503;48.544;12.142;2023-02-28T02:50:39;-2.50;9.10
52609;DHT22;38503;48.544;12.142;2023-02-28T02:53:09;-2.50;9.10
52609;DHT22;38503;48.544;12.142;2023-02-28T02:55:40;-2.60;10.70
52609;DHT22;38503;48.544;12.142;2023-02-28T02:58:11;-2.50;12.70
52609;DHT22;38503;48.544;12.142;2023-02-28T03:00:45;-2.60;12.50
52609;DHT22;38503;48.544;12.142;2023-02-28T03:03:13;-2.60;12.70
52609;DHT22;38503;48.544;12.142;2023-02-28T03:05:50;-2.60;12.90
52609;DHT22;38503;48.544;12.142;2023-02-28T03:08:17;-2.70;15.40
52609;DHT22;38503;48.544;12.142;2023-02-28T03:10:46;-2.70;17.70
52609;DHT22;38503;48.544;12.142;2023-02-28T03:16:07;-2.80;20.10
52609;DHT22;38503;48.544;12.142;2023-02-28T03:24:33;-2.80;21.90
52609;DHT22;38503;48.544;12.142;2023-02-28T03:27:20;-2.90;22.80
52609;DHT22;38503;48.544;12.142;2023-02-28T03:30:03;-2.90;23.60
52609;DHT22;38503;48.544;12.142;2023-02-28T03:32:35;-2.90;24.50
52609;DHT22;38503;48.544;12.142;2023-02-28T03:35:12;-2.90;26.90
52609;DHT22;38503;48.544;12.142;2023-02-28T03:37:42;-2.90;27.30
52609;DHT22;38503;48.544;12.142;2023-02-28T03:40:17;-2.90;28.10
52609;DHT22;38503;48.544;12.142;2023-02-28T03:42:49;-2.90;29.10
52609;DHT22;38503;48.544;12.142;2023-02-28T03:45:21;-2.90;28.60
52609;DHT22;38503;48.544;12.142;2023-02-28T03:48:09;-2.90;29.30
52609;DHT22;38503;48.544;12.142;2023-02-28T03:50:38;-2.90;29.90
52609;DHT22;38503;48.544;12.142;2023-02-28T03:53:27;-2.90;30.10
52609;DHT22;38503;48.544;12.142;2023-02-28T03:56:26;-2.80;28.60
52609;DHT22;38503;48.544;12.142;2023-02-28T03:59:00;-2.70;26.40
52609;DHT22;38503;48.544;12.142;2023-02-28T04:04:02;-2.60;23.70
52609;DHT22;38503;48.544;12.142;2023-02-28T04:06:31;-2.70;22.20
52609;DHT22;38503;48.544;12.142;2023-02-28T04:08:59;-2.70;22.00
52609;DHT22;38503;48.544;12.142;2023-02-28T04:11:35;-2.70;21.40
52609;DHT22;38503;48.544;12.142;2023-02-28T04:14:03;-2.60;18.40
52609;DHT22;38503;48.544;12.142;2023-02-28T04:16:32;-2.60;17.30
52609;DHT22;38503;48.544;12.142;2023-02-28T04:19:03;-2.70;18.50
52609;DHT22;38503;48.544;12.142;2023-02-28T04:21:36;-2.60;18.30
52609;DHT22;38503;48.544;12.142;2023-02-28T04:24:06;-2.70;17.30
52609;DHT22;38503;48.544;12.142;2023-02-28T04:26:35;-2.70;16.00
52609;DHT22;38503;48.544;12.142;2023-02-28T04:29:06;-2.70;17.30
52609;DHT22;38503;48.544;12.142;2023-02-28T04:31:34;-2.80;18.10
52609;DHT22;38503;48.544;12.142;2023-02-28T04:34:01;-2.80;21.30
52609;DHT22;38503;48.544;12.142;2023-02-28T04:36:28;-2.90;23.50
52609;DHT22;38503;48.544;12.142;2023-02-28T04:38:55;-2.80;24.40
52609;DHT22;38503;48.544;12.142;2023-02-28T04:41:23;-2.90;24.00
52609;DHT22;38503;48.544;12.142;2023-02-28T04:43:53;-2.80;21.60
52609;DHT22;38503;48.544;12.142;2023-02-28T04:46:20;-2.80;18.90
52609;DHT22;38503;48.544;12.142;2023-02-28T04:48:47;-2.90;19.80
52609;DHT22;38503;48.544;12.142;2023-02-28T04:51:15;-2.90;22.60
52609;DHT22;38503;48.544;12.142;2023-02-28T04:53:43;-2.90;22.80
52609;DHT22;38503;48.544;12.142;2023-02-28T04:56:15;-3.00;23.50
52609;DHT22;38503;48.544;12.142;2023-02-28T04:58:42;-3.10;24.60
52609;DHT22;38503;48.544;12.142;2023-02-28T05:03:44;-3.10;26.50
52609;DHT22;38503;48.544;12.142;2023-02-28T05:06:12;-3.10;25.10
52609;DHT22;38503;48.544;12.142;2023-02-28T05:08:40;-3.20;23.00
52609;DHT22;38503;48.544;12.142;2023-02-28T05:11:14;-3.20;23.00
52609;DHT22;38503;48.544;12.142;2023-02-28T05:13:41;-3.20;21.90
52609;DHT22;38503;48.544;12.142;2023-02-28T05:16:08;-3.10;20.50
52609;DHT22;38503;48.544;12.142;2023-02-28T05:18:34;-3.10;20.60
52609;DHT22;38503;48.544;12.142;2023-02-28T05:21:01;-3.10;18.70
52609;DHT22;38503;48.544;12.142;2023-02-28T05:23:29;-3.10;18.00
52609;DHT22;38503;48.544;12.142;2023-02-28T05:25:56;-3.10;15.90
52609;DHT22;38503;48.544;12.142;2023-02-28T05:28:23;-3.10;15.20
52609;DHT22;38503;48.544;12.142;2023-02-28T05:30:50;-3.10;12.90
52609;DHT22;38503;48.544;12.142;2023-02-28T05:33:16;-3.10;11.90
52609;DHT22;38503;48.544;12.142;2023-02-28T05:35:43;-3.10;9.50
52609;DHT22;38503;48.544;12.142;2023-02-28T05:38:10;-3.10;10.30
52609;DHT22;38503;48.544;12.142;2023-02-28T05:40:38;-3.20;10.80
52609;DHT22;38503;48.544;12.142;2023-02-28T05:43:09;-3.10;10.90
52609;DHT22;38503;48.544;12.142;2023-02-28T05:45:36;-3.20;9.90
52609;DHT22;38503;48.544;12.142;2023-02-28T05:48:03;-3.20;12.00
52609;DHT22;38503;48.544;12.142;2023-02-28T05:50:30;-3.20;15.00
52609;DHT22;38503;48.544;12.142;2023-02-28T05:52:57;-3.10;16.70
52609;DHT22;38503;48.544;12.142;2023-02-28T05:55:23;-3.20;18.30
52609;DHT22;38503;48.544;12.142;2023-02-28T05:57:50;-3.20;20.20
52609;DHT22;38503;48.544;12.142;2023-02-28T06:00:17;-3.20;20.70
52609;DHT22;38503;48.544;12.142;2023-02-28T06:02:44;-3.20;22.00
52609;DHT22;38503;48.544;12.142;2023-02-28T06:05:16;-3.20;22.60
52609;DHT22;38503;48.544;12.142;2023-02-28T06:07:44;-3.10;23.90
52609;DHT22;38503;48.544;12.142;2023-02-28T06:10:11;-3.10;22.00
52609;DHT22;38503;48.544;12.142;2023-02-28T06:12:38;-3.10;22.50
52609;DHT22;38503;48.544;12.142;2023-02-28T06:15:05;-3.00;22.40
52609;DHT22;38503;48.544;12.142;2023-02-28T06:17:32;-2.70;24.90
52609;DHT22;38503;48.544;12.142;2023-02-28T06:19:59;-2.50;12.40
52609;DHT22;38503;48.544;12.142;2023-02-28T06:22:25;-1.90;7.20
52609;DHT22;38503;48.544;12.142;2023-02-28T06:24:52;-1.30;1.00
52609;DHT22;38503;48.544;12.142;2023-02-28T06:27:19;-0.50;1.00
52609;DHT22;38503;48.544;12.142;2023-02-28T06:29:47;-0.10;1.00
52609;DHT22;38503;48.544;12.142;2023-02-28T06:32:14;0.50;1.00
52609;DHT22;38503;48.544;12.142;2023-02-28T06:34:41;1.00;99.90
52609;DHT22;38503;48.544;12.142;2023-02-28T06:37:07;1.60;94.50
52609;DHT22;38503;48.544;12.142;2023-02-28T06:39:34;2.10;93.10
52609;DHT22;38503;48.544;12.142;2023-02-28T06:42:01;1.90;92.90
52609;DHT22;38503;48.544;12.142;2023-02-28T06:44:28;2.40;92.20
52609;DHT22;38503;48.544;12.142;2023-02-28T06:47:03;3.00;91.80
52609;DHT22;38503;48.544;12.142;2023-02-28T06:49:32;3.30;91.40
52609;DHT22;38503;48.544;12.142;2023-02-28T06:51:59;3.40;90.90
52609;DHT22;38503;48.544;12.142;2023-02-28T06:54:26;4.00;90.50
52609;DHT22;38503;48.544;12.142;2023-02-28T06:56:53;3.90;89.10
52609;DHT22;38503;48.544;12.142;2023-02-28T06:59:23;3.80;89.30
52609;DHT22;38503;48.544;12.142;2023-02-28T07:01:49;4.10;88.30
52609;DHT22;38503;48.544;12.142;2023-02-28T07:04:16;4.10;88.50
52609;DHT22;38503;48.544;12.142;2023-02-28T07:06:43;3.90;87.30
52609;DHT22;38503;48.544;12.142;2023-02-28T07:09:10;4.50;86.20
52609;DHT22;38503;48.544;12.142;2023-02-28T07:11:37;4.90;86.80
52609;DHT22;38503;48.544;12.142;2023-02-28T07:14:04;4.70;86.00
52609;DHT22;38503;48.544;12.142;2023-02-28T07:16:30;3.70;85.20
52609;DHT22;38503;48.544;12.142;2023-02-28T07:18:57;3.70;85.70
52609;DHT22;38503;48.544;12.142;2023-02-28T07:21:24;3.80;85.60
52609;DHT22;38503;48.544;12.142;2023-02-28T07:23:51;4.80;86.30
52609;DHT22;38503;48.544;12.142;2023-02-28T07:26:19;3.80;84.40
52609;DHT22;38503;48.544;12.142;2023-02-28T07:28:47;5.20;84.40
52609;DHT22;38503;48.544;12.142;2023-02-28T07:31:16;5.70;82.40
52609;DHT22;38503;48.544;12.142;2023-02-28T07:33:43;4.80;82.00
52609;DHT22;38503;48.544;12.142;2023-02-28T07:36:13;5.80;80.90
52609;DHT22;38503;48.544;12.142;2023-02-28T07:38:43;5.10;81.90
52609;DHT22;38503;48.544;12.142;2023-02-28T07:41:15;5.40;81.50
52609;DHT22;38503;48.544;12.142;2023-02-28T07:43:42;5.90;80.20
52609;DHT22;38503;48.544;12.142;2023-02-28T07:46:12;6.30;78.50
52609;DHT22;38503;48.544;12.142;2023-02-28T07:48:42;6.50;78.20
52609;DHT22;38503;48.544;12.142;2023-02-28T07:51:09;7.30;78.50
52609;DHT22;38503;48.544;12.142;2023-02-28T07:53:36;6.40;77.60
52609;DHT22;38503;48.544;12.142;2023-02-28T07:56:03;6.60;77.20
52609;DHT22;38503;48.544;12.142;2023-02-28T07:58:31;6.10;76.10
52609;DHT22;38503;48.544;12.142;2023-02-28T08:01:08;5.50;76.70
52609;DHT22;38503;48.544;12.142;2023-02-28T08:03:35;4.80;76.80
52609;DHT22;38503;48.544;12.142;2023-02-28T08:06:04;5.50;77.60
52609;DHT22;38503;48.544;12.142;2023-02-28T08:08:31;5.70;77.80
52609;DHT22;38503;48.544;12.142;2023-02-28T08:10:59;6.70;77.00
52609;DHT22;38503;48.544;12.142;2023-02-28T08:13:28;6.40;75.00
52609;DHT22;38503;48.544;12.142;2023-02-28T08:15:56;6.40;74.90
52609;DHT22;38503;48.544;12.142;2023-02-28T08:18:23;6.20;74.80
52609;DHT22;38503;48.544;12.142;2023-02-28T08:20:50;7.50;74.30
52609;DHT22;38503;48.544;12.142;2023-02-28T08:23:17;7.60;72.50
52609;DHT22;38503;48.544;12.142;2023-02-28T08:25:43;7.00;72.70
52609;DHT22;38503;48.544;12.142;2023-02-28T08:28:10;7.70;71.80
52609;DHT22;38503;48.544;12.142;2023-02-28T08:30:37;7.10;71.90
52609;DHT22;38503;48.544;12.142;2023-02-28T08:33:04;7.80;71.50
52609;DHT22;38503;48.544;12.142;2023-02-28T08:35:31;7.30;70.90
52609;DHT22;38503;48.544;12.142;2023-02-28T08:37:58;8.10;69.80
52609;DHT22;38503;48.544;12.142;2023-02-28T08:40:25;7.20;70.20
52609;DHT22;38503;48.544;12.142;2023-02-28T08:42:51;7.80;69.60
52609;DHT22;38503;48.544;12.142;2023-02-28T08:45:18;7.20;69.00
52609;DHT22;38503;48.544;12.142;2023-02-28T08:47:46;7.50;70.50
52609;DHT22;38503;48.544;12.142;2023-02-28T08:50:12;7.90;67.90
52609;DHT22;38503;48.544;12.142;2023-02-28T08:52:44;7.50;68.70
52609;DHT22;38503;48.544;12.142;2023-02-28T08:55:13;8.40;67.50
52609;DHT22;38503;48.544;12.142;2023-02-28T08:57:40;8.00;68.40
52609;DHT22;38503;48.544;12.142;2023-02-28T09:00:07;8.20;67.80
52609;DHT22;38503;48.544;12.142;2023-02-28T09:02:34;7.60;67.90
52609;DHT22;38503;48.544;12.142;2023-02-28T09:05:01;8.20;68.00
52609;DHT22;38503;48.544;12.142;2023-02-28T09:07:29;7.90;66.90
52609;DHT22;38503;48.544;12.142;2023-02-28T09:09:56;7.90;67.50
52609;DHT22;38503;48.544;12.142;2023-02-28T09:12:25;8.40;66.60
52609;DHT22;38503;48.544;12.142;2023-02-28T09:14:53;8.20;65.90
52609;DHT22;38503;48.544;12.142;2023-02-28T09:17:20;8.70;66.10
52609;DHT22;38503;48.544;12.142;2023-02-28T09:19:49;7.60;66.10
52609;DHT22;38503;48.544;12.142;2023-02-28T09:22:16;8.10;67.40
52609;DHT22;38503;48.544;12.142;2023-02-28T09:24:43;8.80;66.10
52609;DHT22;38503;48.544;12.142;2023-02-28T09:27:11;8.40;65.50
52609;DHT22;38503;48.544;12.142;2023-02-28T09:29:38;8.00;65.30
52609;DHT22;38503;48.544;12.142;2023-02-28T09:32:05;8.60;65.10
52609;DHT22;38503;48.544;12.142;2023-02-28T09:34:32;8.40;64.70
52609;DHT22;38503;48.544;12.142;2023-02-28T09:36:59;8.50;63.60
52609;DHT22;38503;48.544;12.142;2023-02-28T09:39:26;8.20;64.30
52609;DHT22;38503;48.544;12.142;2023-02-28T09:41:54;8.20;63.30
52609;DHT22;38503;48.544;12.142;2023-02-28T09:44:39;7.80;64.70
52609;DHT22;38503;48.544;12.142;2023-02-28T09:47:31;6.80;65.70
52609;DHT22;38503;48.544;12.142;2023-02-28T09:50:52;8.40;64.90
52609;DHT22;38503;48.544;12.142;2023-02-28T09:52:53;7.30;63.80
52609;DHT22;38503;48.544;12.142;2023-02-28T09:55:58;6.30;64.60
52609;DHT22;38503;48.544;12.142;2023-02-28T09:58:47;6.50;65.90
52609;DHT22;38503;48.544;12.142;2023-02-28T10:06:47;7.10;67.50
52609;DHT22;38503;48.544;12.142;2023-02-28T10:09:23;7.00;66.80
52609;DHT22;38503;48.544;12.142;2023-02-28T10:11:52;7.10;66.50
52609;DHT22;38503;48.544;12.142;2023-02-28T10:14:24;7.60;66.20
52609;DHT22;38503;48.544;12.142;2023-02-28T10:19:28;8.60;65.90
52609;DHT22;38503;48.544;12.142;2023-02-28T10:22:16;7.70;64.40
52609;DHT22;38503;48.544;12.142;2023-02-28T10:24:49;7.00;66.20
52609;DHT22;38503;48.544;12.142;2023-02-28T10:27:21;7.90;66.70
52609;DHT22;38503;48.544;12.142;2023-02-28T10:29:53;8.40;66.50
52609;DHT22;38503;48.544;12.142;2023-02-28T10:32:25;7.80;64.70
52609;DHT22;38503;48.544;12.142;2023-02-28T10:35:23;7.50;65.70
52609;DHT22;38503;48.544;12.142;2023-02-28T10:37:55;7.30;65.70
52609;DHT22;38503;48.544;12.142;2023-02-28T10:43:02;9.10;64.40
52609;DHT22;38503;48.544;12.142;2023-02-28T10:45:34;7.80;63.50
52609;DHT22;38503;48.544;12.142;2023-02-28T10:48:05;7.70;64.40
52609;DHT22;38503;48.544;12.142;2023-02-28T10:50:50;7.50;66.00
52609;DHT22;38503;48.544;12.142;2023-02-28T10:58:59;7.10;66.20
52609;DHT22;38503;48.544;12.142;2023-02-28T11:03:57;7.30;67.20
52609;DHT22;38503;48.544;12.142;2023-02-28T11:06:30;7.70;66.20
52609;DHT22;38503;48.544;12.142;2023-02-28T11:09:04;8.10;66.90
52609;DHT22;38503;48.544;12.142;2023-02-28T11:11:43;7.70;65.30
52609;DHT22;38503;48.544;12.142;2023-02-28T11:14:25;8.20;64.70
52609;DHT22;38503;48.544;12.142;2023-02-28T11:16:53;7.70;64.80
52609;DHT22;38503;48.544;12.142;2023-02-28T11:19:30;8.40;65.30
52609;DHT22;38503;48.544;12.142;2023-02-28T11:22:04;8.10;65.40
52609;DHT22;38503;48.544;12.142;2023-02-28T11:24:40;7.70;64.90
52609;DHT22;38503;48.544;12.142;2023-02-28T11:27:25;8.00;65.20
52609;DHT22;38503;48.544;12.142;2023-02-28T11:29:52;8.30;65.10
52609;DHT22;38503;48.544;12.142;2023-02-28T11:32:21;7.80;65.00
52609;DHT22;38503;48.544;12.142;2023-02-28T11:35:02;7.80;65.10
52609;DHT22;38503;48.544;12.142;2023-02-28T11:37:30;9.20;64.50
52609;DHT22;38503;48.544;12.142;2023-02-28T11:39:57;7.80;64.70
52609;DHT22;38503;48.544;12.142;2023-02-28T11:51:01;8.90;63.50
52609;DHT22;38503;48.544;12.142;2023-02-28T11:56:23;8.40;63.70
52609;DHT22;38503;48.544;12.142;2023-02-28T11:59:11;7.50;65.80
52609;DHT22;38503;48.544;12.142;2023-02-28T12:07:16;8.80;64.00
52609;DHT22;38503;48.544;12.142;2023-02-28T12:10:24;8.60;65.30
52609;DHT22;38503;48.544;12.142;2023-02-28T12:24:52;7.10;66.80
52609;DHT22;38503;48.544;12.142;2023-02-28T12:27:24;8.30;66.10
52609;DHT22;38503;48.544;12.142;2023-02-28T12:30:12;7.90;65.90
52609;DHT22;38503;48.544;12.142;2023-02-28T12:32:43;7.40;66.20
52609;DHT22;38503;48.544;12.142;2023-02-28T12:35:25;8.00;67.20
52609;DHT22;38503;48.544;12.142;2023-02-28T12:38:17;7.70;65.40
52609;DHT22;38503;48.544;12.142;2023-02-28T12:40:55;7.80;65.00
52609;DHT22;38503;48.544;12.142;2023-02-28T12:43:27;8.00;66.00
52609;DHT22;38503;48.544;12.142;2023-02-28T12:46:02;7.50;67.00
52609;DHT22;38503;48.544;12.142;2023-02-28T12:48:40;6.90;67.00
52609;DHT22;38503;48.544;12.142;2023-02-28T12:51:09;6.90;67.30
52609;DHT22;38503;48.544;12.142;2023-02-28T12:53:54;7.30;68.00
52609;DHT22;38503;48.544;12.142;2023-02-28T12:56:42;7.10;67.80
52609;DHT22;38503;48.544;12.142;2023-02-28T12:59:19;7.00;68.10
52609;DHT22;38503;48.544;12.142;2023-02-28T13:02:02;6.40;69.30
52609;DHT22;38503;48.544;12.142;2023-02-28T13:10:00;6.10;1.00
52609;DHT22;38503;48.544;12.142;2023-02-28T13:12:28;5.90;1.00
52609;DHT22;38503;48.544;12.142;2023-02-28T13:17:48;6.10;1.00
52609;DHT22;38503;48.544;12.142;2023-02-28T13:20:34;6.10;12.30
52609;DHT22;38503;48.544;12.142;2023-02-28T13:23:01;5.90;99.90
52609;DHT22;38503;48.544;12.142;2023-02-28T13:28:13;6.00;99.90
52609;DHT22;38503;48.544;12.142;2023-02-28T13:33:29;5.50;1.00
52609;DHT22;38503;48.544;12.142;2023-02-28T13:36:10;5.50;1.00
52609;DHT22;38503;48.544;12.142;2023-02-28T13:38:42;5.70;99.90
52609;DHT22;38503;48.544;12.142;2023-02-28T13:49:27;5.20;1.00
52609;DHT22;38503;48.544;12.142;2023-02-28T14:06:23;5.40;1.00
52609;DHT22;38503;48.544;12.142;2023-02-28T14:11:39;5.30;88.20
52609;DHT22;38503;48.544;12.142;2023-02-28T14:14:08;5.00;1.00
52609;DHT22;38503;48.544;12.142;2023-02-28T14:16:44;5.10;1.00
52609;DHT22;38503;48.544;12.142;2023-02-28T14:19:26;5.10;1.00
52609;DHT22;38503;48.544;12.142;2023-02-28T14:25:18;5.20;1.00
52609;DHT22;38503;48.544;12.142;2023-02-28T14:36:20;5.20;99.90
52609;DHT22;38503;48.544;12.142;2023-02-28T14:38:57;5.20;1.00
52609;DHT22;38503;48.544;12.142;2023-02-28T14:41:33;5.10;1.00
52609;DHT22;38503;48.544;12.142;2023-02-28T14:44:20;5.10;1.00
52609;DHT22;38503;48.544;12.142;2023-02-28T14:46:50;5.30;99.90
52609;DHT22;38503;48.544;12.142;2023-02-28T14:54:54;5.00;99.90
52609;DHT22;38503;48.544;12.142;2023-02-28T14:57:24;4.90;99.90
52609;DHT22;38503;48.544;12.142;2023-02-28T15:02:34;5.00;1.00
52609;DHT22;38503;48.544;12.142;2023-02-28T15:05:19;4.90;35.60
52609;DHT22;38503;48.544;12.142;2023-02-28T15:07:48;4.90;1.00
52609;DHT22;38503;48.544;12.142;2023-02-28T15:10:19;4.80;1.00
52609;DHT22;38503;48.544;12.142;2023-02-28T15:13:16;4.60;1.00
52609;DHT22;38503;48.544;12.142;2023-02-28T15:16:14;4.60;1.00
52609;DHT22;38503;48.544;12.142;2023-02-28T15:18:54;4.60;99.90
52609;DHT22;38503;48.544;12.142;2023-02-28T15:21:25;4.60;99.90
52609;DHT22;38503;48.544;12.142;2023-02-28T15:24:04;4.50;99.90
52609;DHT22;38503;48.544;12.142;2023-02-28T15:26:34;4.40;99.90
52609;DHT22;38503;48.544;12.142;2023-02-28T15:29:08;4.30;99.90
52609;DHT22;38503;48.544;12.142;2023-02-28T15:31:50;4.20;1.00
52609;DHT22;38503;48.544;12.142;2023-02-28T15:34:40;4.20;1.00
52609;DHT22;38503;48.544;12.142;2023-02-28T15:42:32;4.10;1.00
52609;DHT22;38503;48.544;12.142;2023-02-28T15:45:01;4.10;10.10
52609;DHT22;38503;48.544;12.142;2023-02-28T15:47:29;4.10;1.00
52609;DHT22;38503;48.544;12.142;2023-02-28T15:50:02;4.10;1.00
52609;DHT22;38503;48.544;12.142;2023-02-28T15:55:29;4.00;99.90
52609;DHT22;38503;48.544;12.142;2023-02-28T15:57:59;4.00;1.00
52609;DHT22;38503;48.544;12.142;2023-02-28T16:00:28;4.00;1.00
52609;DHT22;38503;48.544;12.142;2023-02-28T16:02:55;3.90;10.20
52609;DHT22;38503;48.544;12.142;2023-02-28T16:05:28;3.90;1.00
52609;DHT22;38503;48.544;12.142;2023-02-28T16:07:59;3.90;80.50
52609;DHT22;38503;48.544;12.142;2023-02-28T16:10:27;3.90;99.90
52609;DHT22;38503;48.544;12.142;2023-02-28T16:12:56;3.90;99.90
52609;DHT22;38503;48.544;12.142;2023-02-28T16:15:25;3.90;99.90
52609;DHT22;38503;48.544;12.142;2023-02-28T16:17:53;3.80;99.90
52609;DHT22;38503;48.544;12.142;2023-02-28T16:20:29;3.80;1.00
52609;DHT22;38503;48.544;12.142;2023-02-28T16:22:56;3.80;1.00
52609;DHT22;38503;48.544;12.142;2023-02-28T16:25:34;3.70;1.00
52609;DHT22;38503;48.544;12.142;2023-02-28T16:28:02;3.70;1.00
52609;DHT22;38503;48.544;12.142;2023-02-28T16:30:29;3.60;1.00
52609;DHT22;38503;48.544;12.142;2023-02-28T16:32:59;3.50;1.00
52609;DHT22;38503;48.544;12.142;2023-02-28T16:35:26;3.50;1.00
52609;DHT22;38503;48.544;12.142;2023-02-28T16:37:54;3.40;1.00
52609;DHT22;38503;48.544;12.142;2023-02-28T16:40:23;3.40;94.00
52609;DHT22;38503;48.544;12.142;2023-02-28T16:42:55;3.30;95.80
52609;DHT22;38503;48.544;12.142;2023-02-28T16:45:25;3.20;99.90
52609;DHT22;38503;48.544;12.142;2023-02-28T16:47:53;3.10;99.90
52609;DHT22;38503;48.544;12.142;2023-02-28T16:50:25;3.10;99.90
52609;DHT22;38503;48.544;12.142;2023-02-28T16:52:53;3.00;99.90
52609;DHT22;38503;48.544;12.142;2023-02-28T16:55:22;2.90;99.90
52609;DHT22;38503;48.544;12.142;2023-02-28T16:57:55;2.90;99.90
52609;DHT22;38503;48.544;12.142;2023-02-28T17:00:22;2.80;99.90
52609;DHT22;38503;48.544;12.142;2023-02-28T17:02:50;2.70;1.00
52609;DHT22;38503;48.544;12.142;2023-02-28T17:05:17;2.70;1.00
52609;DHT22;38503;48.544;12.142;2023-02-28T17:07:46;2.60;1.00
52609;DHT22;38503;48.544;12.142;2023-02-28T17:10:24;2.60;1.00
52609;DHT22;38503;48.544;12.142;2023-02-28T17:12:52;2.50;1.00
52609;DHT22;38503;48.544;12.142;2023-02-28T17:15:22;2.40;1.00
52609;DHT22;38503;48.544;12.142;2023-02-28T17:17:49;2.40;1.00
52609;DHT22;38503;48.544;12.142;2023-02-28T17:20:21;2.40;1.00
52609;DHT22;38503;48.544;12.142;2023-02-28T17:22:51;2.40;1.00
52609;DHT22;38503;48.544;12.142;2023-02-28T17:25:19;2.40;1.00
52609;DHT22;38503;48.544;12.142;2023-02-28T17:27:46;2.30;1.00
52609;DHT22;38503;48.544;12.142;2023-02-28T17:30:18;2.30;1.00
52609;DHT22;38503;48.544;12.142;2023-02-28T17:32:45;2.20;1.00
52609;DHT22;38503;48.544;12.142;2023-02-28T17:35:13;2.20;1.00
52609;DHT22;38503;48.544;12.142;2023-02-28T17:37:40;2.10;1.00
52609;DHT22;38503;48.544;12.142;2023-02-28T17:40:16;2.20;1.00
52609;DHT22;38503;48.544;12.142;2023-02-28T17:42:44;2.10;1.00
52609;DHT22;38503;48.544;12.142;2023-02-28T17:45:11;2.10;1.00
52609;DHT22;38503;48.544;12.142;2023-02-28T17:47:39;2.10;1.00
52609;DHT22;38503;48.544;12.142;2023-02-28T17:50:14;2.10;1.00
52609;DHT22;38503;48.544;12.142;2023-02-28T17:52:40;2.10;1.00
52609;DHT22;38503;48.544;12.142;2023-02-28T17:55:09;2.10;1.00
52609;DHT22;38503;48.544;12.142;2023-02-28T17:57:36;2.20;1.00
52609;DHT22;38503;48.544;12.142;2023-02-28T18:00:03;2.20;1.00
52609;DHT22;38503;48.544;12.142;2023-02-28T18:02:33;2.20;1.00
52609;DHT22;38503;48.544;12.142;2023-02-28T18:05:00;2.20;1.00
52609;DHT22;38503;48.544;12.142;2023-02-28T18:07:29;2.10;1.00
52609;DHT22;38503;48.544;12.142;2023-02-28T18:09:56;2.20;1.00
52609;DHT22;38503;48.544;12.142;2023-02-28T18:12:23;2.20;1.00
52609;DHT22;38503;48.544;12.142;2023-02-28T18:14:50;2.20;1.00
52609;DHT22;38503;48.544;12.142;2023-02-28T18:17:16;2.10;1.00
52609;DHT22;38503;48.544;12.142;2023-02-28T18:19:43;2.10;1.00
52609;DHT22;38503;48.544;12.142;2023-02-28T18:22:10;2.10;1.00
52609;DHT22;38503;48.544;12.142;2023-02-28T18:24:37;2.20;1.00